createdAt,value
2023-01-17T00:02:24.734Z,6.87
2023-01-17T00:05:11.087Z,6.72
2023-01-17T00:07:57.351Z,6.54
2023-01-17T00:10:28.462Z,6.46
2023-01-17T00:13:03.491Z,5.95
2023-01-17T00:15:32.389Z,5.68
2023-01-17T00:18:00.144Z,5.65
2023-01-17T00:20:49.803Z,5.49
2023-01-17T00:23:43.619Z,5.41
2023-01-17T00:26:19.128Z,5.28
2023-01-17T00:28:48.327Z,5.22
2023-01-17T00:31:17.479Z,4.99
2023-01-17T00:33:45.000Z,4.96
2023-01-17T00:36:12.684Z,4.94
2023-01-17T00:38:41.245Z,5.24
2023-01-17T00:41:29.104Z,5.56
2023-01-17T00:44:15.163Z,5.35
2023-01-17T00:47:01.192Z,5.23
2023-01-17T00:49:47.113Z,5.30
2023-01-17T00:52:38.242Z,5.33
2023-01-17T00:55:24.952Z,5.57
2023-01-17T00:58:11.104Z,5.52
2023-01-17T01:00:57.259Z,5.53
2023-01-17T01:03:43.396Z,5.73
2023-01-17T01:06:29.779Z,5.94
2023-01-17T01:09:15.739Z,5.94
2023-01-17T01:12:02.012Z,6.06
2023-01-17T01:14:48.084Z,6.16
2023-01-17T01:17:34.006Z,6.05
2023-01-17T01:20:20.308Z,5.87
2023-01-17T01:23:06.415Z,5.66
2023-01-17T01:25:52.392Z,5.71
2023-01-17T01:28:38.455Z,5.66
2023-01-17T01:31:24.869Z,5.75
2023-01-17T01:33:53.287Z,5.66
2023-01-17T01:36:20.958Z,5.71
2023-01-17T01:38:50.296Z,5.74
2023-01-17T01:41:18.189Z,5.72
2023-01-17T01:43:54.179Z,5.57
2023-01-17T01:46:40.199Z,5.52
2023-01-17T01:49:24.978Z,5.29
2023-01-17T01:52:02.538Z,5.51
2023-01-17T01:54:42.358Z,5.66
2023-01-17T01:57:18.137Z,5.57
2023-01-17T01:59:56.451Z,5.62
2023-01-17T02:02:23.843Z,5.33
2023-01-17T02:04:52.731Z,5.53
2023-01-17T02:07:32.278Z,5.68
2023-01-17T02:09:59.983Z,5.59
2023-01-17T02:12:27.735Z,5.65
2023-01-17T02:14:55.551Z,5.72
2023-01-17T02:17:45.283Z,5.77
2023-01-17T02:20:38.825Z,5.43
2023-01-17T02:23:30.594Z,5.60
2023-01-17T02:26:21.809Z,5.51
2023-01-17T02:29:06.926Z,5.21
2023-01-17T02:31:44.187Z,5.59
2023-01-17T02:34:46.333Z,5.94
2023-01-17T02:37:37.804Z,5.63
2023-01-17T02:40:27.280Z,5.78
2023-01-17T02:43:02.831Z,5.78
2023-01-17T02:45:30.257Z,6.04
2023-01-17T02:47:58.249Z,6.03
2023-01-17T02:51:14.634Z,6.01
2023-01-17T02:54:23.929Z,5.79
2023-01-17T02:57:53.123Z,5.89
2023-01-17T03:00:35.600Z,5.60
2023-01-17T03:03:27.045Z,5.67
2023-01-17T03:06:26.045Z,5.99
2023-01-17T03:08:54.628Z,5.95
2023-01-17T03:11:22.199Z,5.73
2023-01-17T03:13:55.990Z,5.86
2023-01-17T03:16:28.306Z,5.84
2023-01-17T03:18:55.757Z,5.84
2023-01-17T03:21:25.093Z,5.96
2023-01-17T03:23:52.673Z,5.91
2023-01-17T03:26:20.047Z,5.88
2023-01-17T03:28:47.356Z,5.97
2023-01-17T03:31:17.188Z,6.07
2023-01-17T03:33:44.466Z,6.16
2023-01-17T03:36:12.325Z,6.63
2023-01-17T03:38:39.779Z,6.37
2023-01-17T03:41:07.512Z,6.64
2023-01-17T03:43:34.846Z,6.38
2023-01-17T03:46:16.468Z,6.33
2023-01-17T03:48:43.759Z,6.38
2023-01-17T03:51:11.132Z,6.47
2023-01-17T03:53:38.394Z,6.55
2023-01-17T03:56:09.235Z,6.60
2023-01-17T03:58:36.506Z,6.67
2023-01-17T04:01:04.486Z,6.83
2023-01-17T04:03:31.874Z,6.48
2023-01-17T04:05:59.421Z,6.51
2023-01-17T04:08:26.968Z,6.30
2023-01-17T04:10:54.394Z,6.14
2023-01-17T04:13:21.980Z,6.00
2023-01-17T04:15:51.680Z,5.76
2023-01-17T04:18:23.066Z,5.76
2023-01-17T04:20:51.547Z,5.31
2023-01-17T04:23:19.321Z,5.36
2023-01-17T04:25:46.590Z,5.33
2023-01-17T04:28:14.064Z,5.16
2023-01-17T04:30:41.306Z,5.10
2023-01-17T04:33:08.746Z,5.22
2023-01-17T04:35:36.065Z,5.15
2023-01-17T04:38:03.905Z,5.07
2023-01-17T04:40:31.639Z,5.26
2023-01-17T04:42:59.686Z,5.30
2023-01-17T04:45:27.266Z,5.39
2023-01-17T04:47:54.825Z,5.22
2023-01-17T04:50:23.207Z,5.06
2023-01-17T04:52:50.629Z,4.82
2023-01-17T04:55:18.151Z,4.79
2023-01-17T04:57:45.441Z,4.83
2023-01-17T05:00:13.816Z,4.22
2023-01-17T05:02:41.131Z,4.36
2023-01-17T05:05:10.064Z,4.46
2023-01-17T05:07:37.440Z,4.51
2023-01-17T05:10:10.957Z,4.69
2023-01-17T05:12:38.697Z,4.85
2023-01-17T05:15:06.886Z,4.78
2023-01-17T05:17:34.139Z,5.58
2023-01-17T05:20:01.572Z,5.78
2023-01-17T05:22:28.871Z,5.71
2023-01-17T05:24:56.108Z,5.36
2023-01-17T05:27:23.388Z,5.29
2023-01-17T05:29:51.079Z,5.27
2023-01-17T05:32:18.533Z,5.54
2023-01-17T05:34:45.864Z,5.69
2023-01-17T05:37:13.535Z,5.35
2023-01-17T05:39:40.785Z,5.33
2023-01-17T05:42:08.019Z,5.23
2023-01-17T05:44:35.264Z,5.36
2023-01-17T05:47:02.530Z,5.15
2023-01-17T05:49:30.107Z,4.61
2023-01-17T05:51:57.979Z,4.76
2023-01-17T05:54:25.330Z,4.71
2023-01-17T05:56:52.470Z,4.88
2023-01-17T05:59:28.774Z,5.09
2023-01-17T06:01:59.695Z,5.12
2023-01-17T06:04:26.945Z,5.04
2023-01-17T06:06:54.389Z,4.79
2023-01-17T06:09:21.800Z,5.33
2023-01-17T06:11:49.020Z,5.75
2023-01-17T06:14:16.172Z,4.98
2023-01-17T06:16:43.440Z,4.63
2023-01-17T06:19:13.636Z,4.52
2023-01-17T06:21:40.883Z,4.13
2023-01-17T06:24:08.180Z,3.98
2023-01-17T06:26:35.441Z,4.22
2023-01-17T06:29:02.813Z,4.87
2023-01-17T06:31:30.093Z,4.70
2023-01-17T06:33:57.249Z,4.49
2023-01-17T06:36:24.546Z,4.17
2023-01-17T06:38:51.810Z,4.56
2023-01-17T06:41:19.049Z,4.74
2023-01-17T06:43:46.255Z,4.26
2023-01-17T06:46:13.595Z,4.24
2023-01-17T06:48:43.714Z,4.23
2023-01-17T06:51:13.317Z,4.79
2023-01-17T06:53:40.780Z,5.00
2023-01-17T06:56:09.895Z,4.74
2023-01-17T06:58:37.213Z,4.52
2023-01-17T07:01:13.182Z,4.26
2023-01-17T07:03:40.788Z,4.51
2023-01-17T07:06:09.575Z,4.67
2023-01-17T07:08:40.320Z,4.66
2023-01-17T07:11:13.838Z,4.24
2023-01-17T07:13:41.939Z,4.28
2023-01-17T07:16:09.473Z,4.53
2023-01-17T07:18:36.809Z,4.69
2023-01-17T07:21:04.388Z,4.87
2023-01-17T07:23:31.598Z,4.89
2023-01-17T07:26:00.969Z,4.93
2023-01-17T07:28:29.122Z,4.99
2023-01-17T07:30:57.331Z,4.50
2023-01-17T07:33:24.618Z,4.47
2023-01-17T07:35:51.852Z,4.88
2023-01-17T07:38:21.047Z,5.19
2023-01-17T07:40:48.402Z,5.38
2023-01-17T07:43:16.765Z,5.27
2023-01-17T07:45:50.753Z,5.30
2023-01-17T07:48:23.697Z,5.38
2023-01-17T07:50:57.601Z,4.92
2023-01-17T07:53:32.731Z,4.93
2023-01-17T07:56:07.514Z,5.37
2023-01-17T07:58:36.136Z,5.57
2023-01-17T08:01:13.488Z,5.73
2023-01-17T08:03:41.605Z,6.20
2023-01-17T08:06:24.693Z,6.54
2023-01-17T08:08:56.453Z,5.98
2023-01-17T08:11:23.814Z,5.74
2023-01-17T08:13:57.548Z,6.17
2023-01-17T08:16:28.562Z,6.28
2023-01-17T08:19:00.039Z,6.54
2023-01-17T08:21:27.523Z,6.69
2023-01-17T08:23:54.730Z,6.78
2023-01-17T08:26:23.158Z,6.93
2023-01-17T08:29:01.194Z,6.87
2023-01-17T08:31:35.473Z,6.74
2023-01-17T08:34:03.071Z,6.97
2023-01-17T08:36:31.318Z,7.06
2023-01-17T08:38:59.157Z,6.67
2023-01-17T08:41:27.938Z,6.41
2023-01-17T08:44:03.699Z,6.46
2023-01-17T08:46:32.831Z,7.13
2023-01-17T08:49:12.558Z,7.82
2023-01-17T08:51:41.480Z,8.21
2023-01-17T08:54:12.976Z,7.97
2023-01-17T08:56:40.356Z,8.26
2023-01-17T08:59:09.348Z,8.26
2023-01-17T09:01:40.766Z,8.22
2023-01-17T09:04:10.444Z,8.05
2023-01-17T09:06:48.364Z,8.36
2023-01-17T09:09:17.966Z,8.50
2023-01-17T09:11:45.604Z,8.46
2023-01-17T09:14:14.079Z,8.26
2023-01-17T09:16:41.792Z,7.85
2023-01-17T09:19:10.319Z,7.28
2023-01-17T09:21:37.716Z,7.41
2023-01-17T09:24:05.247Z,8.15
2023-01-17T09:26:32.585Z,9.50
2023-01-17T09:28:59.978Z,11.55
2023-01-17T09:31:28.169Z,13.76
2023-01-17T09:33:58.328Z,15.82
2023-01-17T09:36:28.993Z,17.58
2023-01-17T09:39:01.303Z,19.51
2023-01-17T09:41:41.658Z,19.51
2023-01-17T09:44:30.974Z,20.44
2023-01-17T09:47:22.552Z,20.76
2023-01-17T09:49:51.690Z,21.29
2023-01-17T09:52:23.853Z,21.78
2023-01-17T09:54:51.954Z,21.33
2023-01-17T09:58:03.625Z,20.93
2023-01-17T10:00:38.750Z,20.92
2023-01-17T10:03:30.756Z,22.12
2023-01-17T10:06:43.707Z,22.66
2023-01-17T10:09:56.139Z,24.46
2023-01-17T10:13:16.473Z,23.77
2023-01-17T10:16:28.619Z,25.13
2023-01-17T10:19:22.705Z,24.61
2023-01-17T10:22:21.682Z,25.50
2023-01-17T10:25:15.916Z,26.22
2023-01-17T10:28:04.075Z,25.99
2023-01-17T10:30:40.294Z,26.57
2023-01-17T10:33:43.657Z,24.99
2023-01-17T10:36:27.747Z,25.37
2023-01-17T10:39:02.347Z,23.72
2023-01-17T10:41:50.775Z,23.26
2023-01-17T10:44:50.004Z,22.95
2023-01-17T10:47:25.271Z,23.65
2023-01-17T10:49:57.568Z,25.12
2023-01-17T10:52:56.659Z,25.85
2023-01-17T10:55:47.719Z,24.75
2023-01-17T10:58:15.461Z,24.11
2023-01-17T11:01:00.769Z,21.48
2023-01-17T11:03:29.433Z,19.95
2023-01-17T11:06:24.148Z,19.54
2023-01-17T11:09:03.059Z,19.97
2023-01-17T11:11:35.410Z,19.71
2023-01-17T11:14:20.912Z,17.52
2023-01-17T11:17:05.357Z,18.57
2023-01-17T11:19:36.517Z,19.23
2023-01-17T11:22:07.483Z,17.10
2023-01-17T11:24:51.634Z,16.42
2023-01-17T11:27:35.124Z,17.02
2023-01-17T11:30:16.416Z,17.23
2023-01-17T11:33:08.645Z,17.05
2023-01-17T11:35:45.463Z,15.80
2023-01-17T11:38:22.009Z,15.08
2023-01-17T11:40:52.739Z,14.03
2023-01-17T11:43:30.239Z,12.71
2023-01-17T11:46:17.866Z,11.91
2023-01-17T11:48:56.609Z,11.49
2023-01-17T11:51:42.007Z,11.92
2023-01-17T11:54:30.141Z,12.62
2023-01-17T11:57:03.204Z,13.44
2023-01-17T11:59:37.660Z,14.32
2023-01-17T12:03:18.336Z,15.09
2023-01-17T12:06:56.757Z,15.84
2023-01-17T12:09:48.730Z,15.54
2023-01-17T12:13:13.748Z,13.57
2023-01-17T12:16:27.021Z,12.84
2023-01-17T12:19:26.284Z,12.64
2023-01-17T12:22:37.241Z,12.02
2023-01-17T12:25:55.038Z,11.54
2023-01-17T12:29:48.685Z,11.34
2023-01-17T12:32:33.737Z,11.27
2023-01-17T12:35:34.786Z,11.25
2023-01-17T12:38:31.714Z,10.71
2023-01-17T12:41:32.873Z,10.37
2023-01-17T12:44:02.489Z,10.55
2023-01-17T12:47:01.243Z,10.77
2023-01-17T12:50:07.440Z,11.02
2023-01-17T12:53:35.828Z,11.24
2023-01-17T12:56:43.120Z,11.25
2023-01-17T12:59:38.630Z,11.14
2023-01-17T13:02:43.313Z,10.09
2023-01-17T13:05:33.102Z,9.57
2023-01-17T13:08:51.712Z,9.68
2023-01-17T13:11:44.530Z,9.27
2023-01-17T13:14:15.655Z,8.79
2023-01-17T13:17:30.656Z,8.87
2023-01-17T13:20:47.024Z,9.01
2023-01-17T13:24:08.450Z,8.99
2023-01-17T13:27:07.061Z,9.32
2023-01-17T13:29:53.647Z,9.04
2023-01-17T13:33:18.244Z,8.91
2023-01-17T13:36:42.069Z,8.58
2023-01-17T13:40:06.020Z,9.28
2023-01-17T13:42:54.961Z,8.89
2023-01-17T13:45:37.871Z,8.89
2023-01-17T13:48:15.039Z,9.31
2023-01-17T13:51:07.267Z,9.25
2023-01-17T13:53:36.537Z,9.20
2023-01-17T13:56:22.894Z,9.87
2023-01-17T13:59:02.148Z,9.80
2023-01-17T14:01:34.983Z,9.15
2023-01-17T14:04:09.166Z,8.99
2023-01-17T14:06:45.149Z,8.84
2023-01-17T14:09:29.060Z,8.35
2023-01-17T14:12:19.901Z,8.98
2023-01-17T14:14:52.144Z,9.18
2023-01-17T14:17:26.936Z,9.19
2023-01-17T14:20:07.094Z,8.76
2023-01-17T14:22:50.130Z,8.68
2023-01-17T14:25:33.708Z,8.36
2023-01-17T14:28:32.158Z,8.45
2023-01-17T14:31:03.605Z,8.49
2023-01-17T14:33:40.022Z,8.70
2023-01-17T14:36:25.039Z,8.86
2023-01-17T14:38:52.865Z,8.82
2023-01-17T14:41:28.925Z,8.82
2023-01-17T14:44:00.044Z,8.74
2023-01-17T14:46:33.165Z,8.92
2023-01-17T14:49:16.052Z,8.92
2023-01-17T14:51:44.637Z,9.04
2023-01-17T14:54:22.306Z,9.31
2023-01-17T14:56:49.715Z,8.83
2023-01-17T14:59:22.163Z,8.46
2023-01-17T15:02:07.759Z,8.68
2023-01-17T15:04:41.103Z,8.60
2023-01-17T15:07:20.569Z,8.26
2023-01-17T15:09:49.925Z,8.21
2023-01-17T15:12:19.134Z,8.50
2023-01-17T15:14:47.378Z,8.54
2023-01-17T15:17:26.851Z,8.65
2023-01-17T15:20:03.762Z,8.62
2023-01-17T15:22:32.281Z,8.65
2023-01-17T15:25:01.160Z,8.89
2023-01-17T15:27:29.056Z,8.75
2023-01-17T15:30:02.026Z,8.42
2023-01-17T15:32:32.843Z,8.44
2023-01-17T15:35:03.107Z,8.23
2023-01-17T15:37:39.488Z,8.26
2023-01-17T15:40:21.786Z,7.92
2023-01-17T15:42:58.883Z,7.58
2023-01-17T15:45:34.439Z,7.48
2023-01-17T15:48:44.888Z,7.62
2023-01-17T15:51:14.005Z,7.65
2023-01-17T15:53:43.339Z,7.30
2023-01-17T15:56:33.416Z,7.29
2023-01-17T15:59:39.091Z,7.48
2023-01-17T16:02:59.865Z,7.46
2023-01-17T16:05:32.939Z,7.49
2023-01-17T16:08:04.320Z,7.25
2023-01-17T16:10:39.121Z,7.22
2023-01-17T16:13:43.463Z,7.22
2023-01-17T16:16:24.586Z,7.51
2023-01-17T16:19:01.400Z,7.40
2023-01-17T16:21:32.275Z,7.52
2023-01-17T16:24:01.018Z,7.66
2023-01-17T16:26:29.332Z,7.96
2023-01-17T16:28:57.258Z,7.80
2023-01-17T16:31:25.394Z,7.58
2023-01-17T16:33:53.007Z,7.76
2023-01-17T16:36:23.092Z,7.65
2023-01-17T16:38:55.284Z,7.60
2023-01-17T16:41:23.056Z,7.71
2023-01-17T16:44:08.765Z,7.78
2023-01-17T16:46:38.709Z,8.19
2023-01-17T16:49:06.493Z,7.79
2023-01-17T16:51:34.694Z,7.97
2023-01-17T16:54:02.585Z,8.10
2023-01-17T16:56:31.434Z,7.20
2023-01-17T16:58:58.966Z,7.02
2023-01-17T17:01:26.694Z,7.05
2023-01-17T17:03:54.272Z,7.17
2023-01-17T17:06:21.999Z,7.24
2023-01-17T17:08:50.210Z,7.26
2023-01-17T17:11:23.197Z,6.82
2023-01-17T17:13:52.302Z,6.20
2023-01-17T17:16:26.712Z,6.45
2023-01-17T17:19:06.667Z,6.31
2023-01-17T17:21:39.781Z,6.19
2023-01-17T17:24:07.570Z,6.55
2023-01-17T17:26:37.470Z,6.16
2023-01-17T17:29:10.675Z,5.94
2023-01-17T17:31:41.166Z,6.30
2023-01-17T17:34:15.647Z,5.98
2023-01-17T17:36:43.035Z,5.49
2023-01-17T17:39:15.805Z,5.58
2023-01-17T17:41:45.835Z,5.54
2023-01-17T17:44:13.178Z,5.22
2023-01-17T17:46:43.140Z,5.12
2023-01-17T17:49:10.725Z,5.22
2023-01-17T17:51:40.622Z,5.16
2023-01-17T17:54:13.656Z,4.92
2023-01-17T17:56:48.349Z,5.02
2023-01-17T17:59:28.569Z,5.20
2023-01-17T18:02:00.087Z,5.55
2023-01-17T18:04:28.154Z,5.72
2023-01-17T18:06:58.494Z,5.62
2023-01-17T18:09:26.407Z,5.89
2023-01-17T18:11:56.975Z,5.84
2023-01-17T18:14:30.080Z,6.05
2023-01-17T18:16:58.086Z,6.19
2023-01-17T18:19:26.994Z,6.14
2023-01-17T18:22:13.296Z,6.15
2023-01-17T18:24:41.544Z,6.25
2023-01-17T18:27:11.189Z,6.02
2023-01-17T18:29:39.061Z,5.90
2023-01-17T18:32:07.531Z,6.03
2023-01-17T18:34:35.862Z,5.86
2023-01-17T18:37:15.585Z,5.84
2023-01-17T18:40:20.827Z,5.65
2023-01-17T18:42:50.062Z,5.68
2023-01-17T18:45:32.061Z,5.48
2023-01-17T18:48:02.803Z,5.65
2023-01-17T18:50:31.686Z,5.56
2023-01-17T18:53:10.844Z,5.63
2023-01-17T18:55:41.980Z,5.46
2023-01-17T18:58:13.239Z,5.42
2023-01-17T19:00:44.269Z,5.56
2023-01-17T19:03:14.207Z,5.39
2023-01-17T19:05:42.119Z,5.68
2023-01-17T19:08:09.845Z,5.70
2023-01-17T19:10:49.594Z,5.81
2023-01-17T19:13:18.351Z,5.70
2023-01-17T19:15:52.165Z,5.60
2023-01-17T19:18:22.646Z,5.43
2023-01-17T19:20:54.066Z,5.28
2023-01-17T19:23:23.487Z,5.24
2023-01-17T19:25:55.628Z,5.26
2023-01-17T19:28:24.035Z,5.21
2023-01-17T19:31:12.583Z,5.11
2023-01-17T19:33:53.070Z,5.10
2023-01-17T19:36:59.035Z,5.05
2023-01-17T19:40:22.274Z,4.76
2023-01-17T19:42:50.053Z,4.99
2023-01-17T19:45:17.706Z,4.95
2023-01-17T19:47:45.394Z,4.95
2023-01-17T19:50:14.975Z,4.80
2023-01-17T19:52:42.499Z,4.93
2023-01-17T19:55:10.234Z,4.97
2023-01-17T19:57:40.635Z,4.94
2023-01-17T20:00:13.296Z,5.03
2023-01-17T20:02:40.914Z,5.05
2023-01-17T20:05:09.078Z,4.95
2023-01-17T20:07:36.461Z,4.93
2023-01-17T20:10:04.407Z,4.99
2023-01-17T20:12:32.134Z,4.87
2023-01-17T20:14:59.580Z,4.96
2023-01-17T20:17:26.827Z,5.06
2023-01-17T20:19:57.656Z,5.19
2023-01-17T20:22:24.932Z,5.00
2023-01-17T20:24:52.319Z,5.04
2023-01-17T20:27:21.476Z,5.00
2023-01-17T20:29:49.931Z,4.92
2023-01-17T20:32:17.233Z,4.90
2023-01-17T20:34:45.537Z,4.94
2023-01-17T20:37:12.808Z,4.91
2023-01-17T20:39:40.220Z,4.90
2023-01-17T20:42:07.540Z,4.95
2023-01-17T20:44:35.336Z,5.15
2023-01-17T20:47:03.924Z,5.22
2023-01-17T20:49:32.668Z,5.13
2023-01-17T20:52:02.924Z,5.07
2023-01-17T20:54:31.275Z,5.01
2023-01-17T20:56:58.644Z,4.87
2023-01-17T20:59:26.187Z,5.03
2023-01-17T21:01:53.679Z,5.17
2023-01-17T21:04:25.939Z,4.95
2023-01-17T21:06:53.484Z,5.08
2023-01-17T21:09:21.976Z,5.21
2023-01-17T21:11:50.477Z,5.30
2023-01-17T21:14:21.854Z,5.17
2023-01-17T21:16:50.461Z,5.37
2023-01-17T21:19:22.983Z,5.33
2023-01-17T21:21:51.196Z,4.91
2023-01-17T21:24:19.655Z,4.99
2023-01-17T21:26:47.526Z,4.70
2023-01-17T21:29:17.580Z,5.01
2023-01-17T21:31:45.413Z,4.93
2023-01-17T21:34:13.669Z,5.02
2023-01-17T21:36:43.276Z,5.19
2023-01-17T21:39:18.727Z,5.28
2023-01-17T21:41:50.629Z,5.36
2023-01-17T21:44:22.424Z,5.58
2023-01-17T21:46:56.368Z,5.68
2023-01-17T21:49:24.132Z,5.39
2023-01-17T21:51:54.548Z,5.04
2023-01-17T21:54:47.248Z,5.20
2023-01-17T21:57:42.903Z,5.38
2023-01-17T22:00:16.825Z,5.29
2023-01-17T22:02:47.007Z,5.37
2023-01-17T22:05:16.953Z,5.48
2023-01-17T22:08:05.782Z,4.87
2023-01-17T22:10:44.703Z,5.23
2023-01-17T22:13:18.281Z,5.32
2023-01-17T22:15:46.249Z,5.21
2023-01-17T22:18:15.308Z,5.23
2023-01-17T22:20:43.147Z,5.26
2023-01-17T22:23:11.860Z,5.20
2023-01-17T22:25:39.276Z,5.25
2023-01-17T22:28:06.789Z,5.11
2023-01-17T22:30:34.125Z,5.07
2023-01-17T22:33:01.371Z,5.17
2023-01-17T22:35:28.891Z,5.24
2023-01-17T22:38:21.984Z,5.37
2023-01-17T22:40:49.271Z,5.18
2023-01-17T22:43:16.557Z,5.24
2023-01-17T22:45:45.837Z,5.42
2023-01-17T22:48:13.217Z,5.45
2023-01-17T22:50:40.588Z,5.31
2023-01-17T22:53:08.618Z,5.20
2023-01-17T22:55:35.828Z,5.07
2023-01-17T22:58:03.019Z,5.06
2023-01-17T23:00:31.562Z,4.96
2023-01-17T23:02:59.302Z,4.94
2023-01-17T23:05:26.788Z,5.05
2023-01-17T23:07:54.190Z,5.08
2023-01-17T23:10:40.391Z,5.15
2023-01-17T23:13:11.845Z,5.06
2023-01-17T23:15:58.029Z,5.00
2023-01-17T23:18:44.208Z,5.04
2023-01-17T23:21:11.988Z,5.10
2023-01-17T23:23:39.311Z,5.17
2023-01-17T23:26:06.777Z,5.16
2023-01-17T23:28:34.205Z,5.15
2023-01-17T23:31:05.880Z,5.17
2023-01-17T23:33:33.233Z,5.02
2023-01-17T23:36:01.846Z,4.96
2023-01-17T23:38:29.703Z,4.75
2023-01-17T23:41:29.848Z,4.96
2023-01-17T23:43:59.085Z,5.10
2023-01-17T23:46:30.149Z,4.99
2023-01-17T23:48:57.570Z,4.86
2023-01-17T23:51:25.202Z,4.77
2023-01-17T23:53:57.385Z,4.83
2023-01-17T23:56:25.056Z,4.86
2023-01-17T23:58:52.945Z,5.02
